Klawock Airport
PAKW : rendu visible

Aérodrome :











RETROUVEZ-NOUS SUR...

 
LOGIN :

S'inscrire | Disclaimer

   EN    FR    IT 

 









Légende :    VFR   VFR Marginal   IFR   IFR Intensif   IFR Très Intensif
Visi : 
Plafond : 
>= 8 km
>= 3000ft
5 à 8 km
1000 à 3000 ft
1500m à 5 km
500 à 1000 ft
800 à 1500m
200 à 500 ft
< 800m
< 200 ft
Symboles :   Orages  Brouillard  Fortes neiges  Fortes précipitations  Vent > 20 kt






- Altitude de l'aérodrome : 80 ft
- Code IATA : AKW


PAKW - Klawock

DERNIER METAR :
  • 250753Z AUTO 04003KT 10SM OVC035 01/M01 A2954 RMK SLP004 T00061006 TSNO VIA AUTODIAL

TAF PAKW
Valide du 25 à 06h jusqu'au 26 à 06h UTC


250533Z 2506/2606 VRB04KT P6SM VCSH OVC050
FM251200 04005KT 4SM -SN BR OVC030
FM251800 16007KT 6SM -RA BR OVC030 WS020/18040KT AMD LTD TO CLD VIS AND WIND



MET'MAP, la Météo Aéronautique d'un coup d'oeil ! - Copyright ORBIFLY Décembre 2007 - Disclaimer

ORBIFLY MET'MAP TEAM :

Programmation & Développement : Alexandra Zaïnal
Sur une idée originale de : Baudouin d'Aumeries
Assistance à la programmation : Marc-Olivier Méhu
Soutien technique & logistique : Manuel Goepfert

Contact : metmap@orbifly.com




SOURCES & CREDITS :

   NOAA       Earth
Advisory